Time;durP1;ratioP1;P1;durP2;ratioP2;P2;SDS_P1;SDS_P2;PMS_P1;PMS_P2;Temp;Humidity;BMP_temperature;BMP_pressure;BME280_temperature;BME280_humidity;BME280_pressure;Samples;Min_cycle;Max_cycle;Signal;HPM_P1;HPM_P2
2023/01/12 00:01:52;;;;;;;3.23;2.93;;;;;;;5.21;97.48;97068.44;4990277;28;20213;-78
2023/01/12 00:04:19;;;;;;;4.23;3.17;;;;;;;5.27;97.09;97064.84;4989474;28;20201;-74
2023/01/12 00:06:46;;;;;;;3.10;2.60;;;;;;;5.38;96.13;97068.84;4990640;28;20214;-73
2023/01/12 00:09:13;;;;;;;4.50;3.03;;;;;;;5.51;96.94;97084.78;4988671;28;20200;-75
2023/01/12 00:11:40;;;;;;;4.83;3.37;;;;;;;5.61;96.33;97096.50;4989221;28;20193;-73
2023/01/12 00:14:08;;;;;;;5.23;3.70;;;;;;;5.76;96.22;97101.25;4988788;28;20198;-72
2023/01/12 00:16:39;;;;;;;3.70;3.27;;;;;;;5.71;95.60;97098.81;4990384;28;20209;-73
2023/01/12 00:19:17;;;;;;;4.30;2.73;;;;;;;5.65;94.96;97092.97;4989636;28;20209;-72
2023/01/12 00:24:35;;;;;;;3.43;2.50;;;;;;;5.38;96.87;97093.69;4990133;28;20280;-73
2023/01/12 00:27:18;;;;;;;3.33;2.40;;;;;;;5.43;96.54;97102.09;4987342;28;20679;-73
2023/01/12 00:29:46;;;;;;;2.80;2.23;;;;;;;5.51;95.10;97095.91;4988513;28;20197;-72
2023/01/12 00:32:16;;;;;;;4.00;2.23;;;;;;;5.47;94.84;97094.28;4989671;28;20659;-73
2023/01/12 00:34:43;;;;;;;2.00;1.70;;;;;;;5.07;95.55;97085.03;4988820;28;20777;-72
2023/01/12 00:37:11;;;;;;;2.63;1.93;;;;;;;4.88;96.33;97103.38;4990088;28;20198;-75
2023/01/12 00:39:37;;;;;;;2.37;1.90;;;;;;;5.08;96.41;97105.53;4988367;28;20220;-72
2023/01/12 00:47:42;;;;;;;2.80;2.20;;;;;;;5.03;95.11;97093.69;4988602;28;20219;-77
2023/01/12 00:50:09;;;;;;;2.87;2.53;;;;;;;5.00;95.20;97107.41;4988519;28;20185;-77
2023/01/12 00:52:36;;;;;;;2.73;2.37;;;;;;;5.05;96.32;97109.88;4988098;28;20194;-81
2023/01/12 00:55:04;;;;;;;2.43;2.10;;;;;;;5.15;96.22;97113.94;4988363;28;20204;-76
2023/01/12 00:57:31;;;;;;;3.63;2.20;;;;;;;5.02;95.46;97121.06;4987929;28;20708;-80
2023/01/12 00:59:58;;;;;;;4.07;2.37;;;;;;;4.91;95.16;97087.09;4989318;28;20227;-77
2023/01/12 01:02:27;;;;;;;2.60;2.20;;;;;;;5.18;95.18;97106.13;4988098;28;20190;-77
2023/01/12 01:04:54;;;;;;;2.47;2.27;;;;;;;5.22;95.07;97113.75;5019323;28;20212;-79
2023/01/12 01:07:21;;;;;;;4.67;2.50;;;;;;;5.30;94.45;97116.13;4989410;28;20633;-81
2023/01/12 01:09:49;;;;;;;3.10;2.73;;;;;;;5.27;94.28;97111.06;4988270;28;20272;-79
2023/01/12 01:12:16;;;;;;;2.90;2.60;;;;;;;5.40;93.90;97107.34;4989304;28;20188;-78
2023/01/12 01:14:46;;;;;;;3.43;2.53;;;;;;;5.43;93.66;97105.53;4986219;28;20194;-78
2023/01/12 01:17:13;;;;;;;2.60;2.03;;;;;;;5.48;93.25;97108.81;4988893;28;20332;-77
2023/01/12 01:19:40;;;;;;;4.20;1.87;;;;;;;5.34;94.35;97102.31;4988486;28;20201;-80
2023/01/12 01:22:07;;;;;;;2.83;2.37;;;;;;;5.22;94.85;97112.88;4988023;28;20186;-80
2023/01/12 01:24:33;;;;;;;3.10;2.33;;;;;;;5.06;94.16;97114.97;4989041;28;20234;-80
2023/01/12 01:27:00;;;;;;;2.97;2.67;;;;;;;5.22;94.27;97110.31;4969939;28;20194;-72
2023/01/12 01:29:27;;;;;;;4.57;3.70;;;;;;;5.31;93.79;97108.41;4989098;28;20186;-81
2023/01/12 01:31:54;;;;;;;6.27;4.03;;;;;;;5.36;93.44;97114.25;4987246;28;20304;-79
2023/01/12 01:34:22;;;;;;;5.03;4.00;;;;;;;5.19;93.33;97102.72;4988837;28;20313;-76
2023/01/12 01:36:49;;;;;;;6.03;4.43;;;;;;;5.44;94.35;97114.09;4987944;28;20559;-77
2023/01/12 01:39:16;;;;;;;6.60;4.90;;;;;;;5.14;94.10;97109.66;4986781;28;20194;-78
2023/01/12 01:41:43;;;;;;;6.30;4.97;;;;;;;4.77;95.10;97113.06;4988668;28;20270;-76
2023/01/12 01:44:29;;;;;;;6.77;5.00;;;;;;;4.86;95.23;97115.41;4987060;28;20752;-76
2023/01/12 01:47:11;;;;;;;6.67;4.27;;;;;;;4.79;95.81;97111.31;4988757;28;20199;-80
2023/01/12 01:49:44;;;;;;;4.67;3.30;;;;;;;5.00;94.83;97111.69;4987382;28;20194;-75
2023/01/12 01:52:18;;;;;;;3.70;3.37;;;;;;;4.97;94.88;97093.81;4987800;28;20189;-79
2023/01/12 01:54:54;;;;;;;3.23;2.70;;;;;;;5.01;94.19;97098.00;4988620;28;20188;-80
2023/01/12 01:57:26;;;;;;;3.43;2.43;;;;;;;5.19;93.53;97102.72;4985625;28;20245;-80
2023/01/12 01:59:57;;;;;;;2.57;2.33;;;;;;;5.18;94.44;97086.47;4988431;28;20594;-80
2023/01/12 02:02:25;;;;;;;3.47;3.17;;;;;;;5.32;94.38;97093.81;5018030;28;20280;-80
2023/01/12 02:04:54;;;;;;;3.23;2.93;;;;;;;5.47;93.40;97088.31;4988434;28;20742;-79
2023/01/12 02:07:22;;;;;;;3.63;3.13;;;;;;;5.41;92.95;97096.16;4970854;28;20193;-81
2023/01/12 02:09:49;;;;;;;3.03;2.70;;;;;;;5.32;92.49;97079.25;4985860;28;20333;-72
2023/01/12 02:18:26;;;;;;;4.57;2.70;;;;;;;5.26;93.99;97091.41;4987938;28;20354;-72
2023/01/12 02:21:19;;;;;;;3.23;2.93;;;;;;;5.45;94.02;97092.63;4986482;28;20239;-73
2023/01/12 02:23:55;;;;;;;4.17;2.70;;;;;;;5.27;93.06;97090.53;4984619;28;20202;-78
2023/01/12 02:26:28;;;;;;;2.97;2.67;;;;;;;5.05;94.20;97089.34;4988352;28;20188;-79
2023/01/12 02:29:07;;;;;;;3.17;2.63;;;;;;;4.78;95.60;97083.97;4987683;28;20190;-81
2023/01/12 02:31:52;;;;;;;3.17;2.70;;;;;;;4.79;95.99;97084.81;4986865;28;20303;-81
2023/01/12 02:34:45;;;;;;;2.67;2.47;;;;;;;4.95;95.85;97093.84;4986890;28;20191;-77
2023/01/12 02:37:16;;;;;;;2.97;2.67;;;;;;;5.10;95.44;97090.94;4966419;28;20190;-77
2023/01/12 02:40:07;;;;;;;3.17;2.83;;;;;;;5.05;95.35;97081.66;4987625;28;20196;-75
2023/01/12 02:42:53;;;;;;;2.70;2.50;;;;;;;5.24;95.17;97088.88;4986804;28;20196;-75
2023/01/12 02:45:44;;;;;;;2.63;2.20;;;;;;;5.36;93.84;97096.28;4986607;28;20826;-81
2023/01/12 02:48:35;;;;;;;2.93;2.33;;;;;;;4.97;94.10;97087.81;4986520;28;20228;-75
2023/01/12 02:51:57;;;;;;;3.07;2.60;;;;;;;5.03;93.64;97091.13;4986866;28;20201;-77
2023/01/12 02:54:27;;;;;;;3.00;2.37;;;;;;;5.10;94.42;97090.06;4964298;28;20701;-80
2023/01/12 02:57:00;;;;;;;3.97;3.40;;;;;;;4.89;95.00;97089.69;4987623;28;20281;-79
2023/01/12 02:59:32;;;;;;;3.10;2.80;;;;;;;5.07;95.17;97095.31;4987660;28;20192;-80
2023/01/12 03:02:05;;;;;;;4.77;3.67;;;;;;;4.98;95.17;97098.91;4986386;28;20221;-78
2023/01/12 03:04:32;;;;;;;3.83;3.20;;;;;;;5.13;95.30;97092.59;4986841;28;20275;-80
2023/01/12 03:06:59;;;;;;;5.77;3.77;;;;;;;5.28;95.58;97097.34;4984959;28;20196;-78
2023/01/12 03:09:42;;;;;;;6.27;4.57;;;;;;;5.25;95.09;97092.28;4986768;28;20260;-81
2023/01/12 03:12:14;;;;;;;5.73;4.73;;;;;;;5.34;93.75;97099.75;4987550;28;20572;-78
2023/01/12 03:14:46;;;;;;;6.30;4.67;;;;;;;5.22;94.45;97102.63;4986888;28;20186;-77
2023/01/12 03:17:25;;;;;;;9.80;5.43;;;;;;;4.96;94.85;97098.09;4987586;28;20702;-76
2023/01/12 03:19:54;;;;;;;6.97;5.20;;;;;;;4.56;96.75;97092.16;4984781;28;20714;-79
2023/01/12 03:22:22;;;;;;;5.30;4.10;;;;;;;4.68;96.18;97097.88;4987674;28;20652;-80
2023/01/12 03:24:56;;;;;;;3.13;2.83;;;;;;;4.75;96.46;97107.13;4987002;28;20239;-79
2023/01/12 03:27:29;;;;;;;3.50;2.60;;;;;;;4.85;96.33;97098.34;4990682;28;20668;-80
2023/01/12 03:30:01;;;;;;;2.83;2.57;;;;;;;4.82;95.82;97093.28;4991385;28;20276;-77
2023/01/12 03:32:31;;;;;;;1.70;1.43;;;;;;;4.85;94.82;97106.03;4989580;28;20196;-75
2023/01/12 03:34:58;;;;;;;2.67;2.00;;;;;;;4.90;95.48;97106.75;4991148;28;20212;-77
2023/01/12 03:38:06;;;;;;;1.80;1.70;;;;;;;4.93;94.60;97095.59;4989394;28;20196;-80
2023/01/12 03:40:43;;;;;;;2.00;1.63;;;;;;;4.94;94.83;97095.59;4990033;28;20225;-78
2023/01/12 03:43:31;;;;;;;3.00;2.33;;;;;;;5.15;94.40;97101.94;4990985;28;20196;-76
2023/01/12 03:46:06;;;;;;;1.83;1.47;;;;;;;5.07;94.37;97101.25;4989385;28;20190;-79
2023/01/12 03:48:41;;;;;;;2.03;1.57;;;;;;;5.11;94.51;97102.88;4991114;28;20182;-75
2023/01/12 03:51:22;;;;;;;1.50;1.40;;;;;;;4.98;94.04;97088.66;4990252;28;20189;-81
2023/01/12 03:53:51;;;;;;;1.80;1.60;;;;;;;5.17;95.02;97099.34;4989600;28;20208;-77
2023/01/12 03:56:22;;;;;;;2.93;2.63;;;;;;;5.26;94.50;97099.09;4989616;28;20196;-75
2023/01/12 03:58:50;;;;;;;5.43;3.63;;;;;;;5.31;93.95;97110.13;4987865;28;20185;-73
2023/01/12 04:01:17;;;;;;;5.93;4.07;;;;;;;5.28;94.44;97107.59;4990575;28;20224;-73
2023/01/12 04:03:45;;;;;;;7.03;5.10;;;;;;;5.37;94.39;97107.41;4989201;28;20698;-72
2023/01/12 04:06:12;;;;;;;7.73;5.33;;;;;;;5.38;93.68;97103.97;4989025;28;20186;-72
2023/01/12 04:08:39;;;;;;;6.20;4.47;;;;;;;5.22;93.03;97100.91;4990260;28;20690;-72
2023/01/12 04:13:52;;;;;;;5.80;4.50;;;;;;;5.38;93.45;97116.81;4990393;28;20222;-81
2023/01/12 04:16:19;;;;;;;3.77;3.33;;;;;;;5.39;92.62;97115.91;4988735;28;20190;-77
2023/01/12 04:18:46;;;;;;;5.33;3.97;;;;;;;5.17;93.03;97131.00;4990300;28;20762;-73
2023/01/12 04:23:59;;;;;;;6.93;4.47;;;;;;;5.28;93.46;97126.44;4989236;28;20197;-82
2023/01/12 04:26:26;;;;;;;5.43;3.57;;;;;;;5.40;93.31;97126.13;4990340;28;20196;-75
2023/01/12 04:28:53;;;;;;;3.40;3.07;;;;;;;5.30;94.70;97128.94;4987174;28;20208;-76
2023/01/12 04:31:20;;;;;;;8.67;6.10;;;;;;;5.07;93.64;97115.81;4995517;28;20193;-78
2023/01/12 04:33:47;;;;;;;10.87;8.20;;;;;;;4.99;95.16;97130.56;5006438;28;20289;-75
2023/01/12 04:36:14;;;;;;;11.37;7.00;;;;;;;5.14;95.43;97141.31;5010511;28;20284;-80
2023/01/12 04:38:41;;;;;;;9.03;6.73;;;;;;;5.15;94.36;97152.44;5007303;28;20292;-80
2023/01/12 04:41:08;;;;;;;9.93;6.77;;;;;;;5.08;95.44;97153.44;5008500;28;20324;-74
2023/01/12 04:43:35;;;;;;;7.40;5.67;;;;;;;4.70;97.26;97128.59;5007898;28;20678;-78
2023/01/12 04:46:05;;;;;;;2.97;2.70;;;;;;;4.68;95.96;97146.59;5006537;28;20570;-80
2023/01/12 04:48:32;;;;;;;5.83;4.00;;;;;;;4.63;96.43;97147.59;5007130;28;20263;-79
2023/01/12 04:51:00;;;;;;;5.27;3.70;;;;;;;4.83;96.96;97150.56;5013854;28;20205;-78
2023/01/12 04:53:27;;;;;;;4.20;3.80;;;;;;;4.85;96.47;97141.97;4989796;28;20184;-77
2023/01/12 04:55:55;;;;;;;5.50;4.50;;;;;;;4.90;96.71;97150.38;4995812;28;20192;-75
2023/01/12 04:58:22;;;;;;;5.40;4.10;;;;;;;5.10;96.25;97160.22;4995487;28;20200;-75
2023/01/12 05:00:49;;;;;;;7.23;5.60;;;;;;;5.11;96.71;97158.50;4989405;28;20659;-77
2023/01/12 05:03:17;;;;;;;8.13;6.07;;;;;;;5.13;96.05;97156.75;4986381;28;20633;-74
2023/01/12 05:05:44;;;;;;;6.93;5.37;;;;;;;5.23;95.88;97155.66;4989417;28;20850;-79
2023/01/12 05:10:59;;;;;;;7.77;6.00;;;;;;;5.15;95.91;97157.56;4993142;28;20192;-77
2023/01/12 05:13:29;;;;;;;9.33;6.20;;;;;;;5.13;96.48;97154.19;5006389;28;20582;-77
2023/01/12 05:16:05;;;;;;;10.10;6.60;;;;;;;5.24;95.71;97171.03;5006528;28;20586;-79
2023/01/12 05:18:32;;;;;;;8.53;6.07;;;;;;;5.20;96.32;97165.97;5008700;28;20232;-80
2023/01/12 05:20:59;;;;;;;6.20;5.10;;;;;;;5.05;95.54;97163.78;5007005;28;20219;-74
2023/01/12 05:23:26;;;;;;;11.03;7.00;;;;;;;5.06;95.94;97168.88;5008927;28;20281;-78
2023/01/12 05:25:57;;;;;;;11.20;7.73;;;;;;;5.07;97.04;97167.16;5004206;28;20215;-78
2023/01/12 05:28:25;;;;;;;15.93;11.67;;;;;;;5.15;96.25;97178.09;5007037;28;20673;-74
2023/01/12 05:30:52;;;;;;;13.13;8.87;;;;;;;5.15;96.39;97175.53;5007627;28;20233;-75
2023/01/12 05:33:19;;;;;;;11.87;7.87;;;;;;;5.05;95.94;97174.03;5007388;28;20289;-74
2023/01/12 05:35:46;;;;;;;12.87;7.77;;;;;;;5.15;95.99;97178.94;5008555;28;20189;-77
2023/01/12 05:38:13;;;;;;;9.53;6.37;;;;;;;5.19;95.68;97167.72;5005451;28;20199;-73
2023/01/12 05:40:40;;;;;;;6.83;5.23;;;;;;;5.32;94.67;97181.94;5008241;28;20196;-77
2023/01/12 05:46:02;;;;;;;11.87;7.87;;;;;;;5.00;95.99;97179.28;5007839;28;20697;-75
2023/01/12 05:48:30;;;;;;;10.60;8.00;;;;;;;5.10;96.30;97178.19;5007883;28;20196;-78
2023/01/12 05:51:01;;;;;;;8.87;6.43;;;;;;;5.11;95.67;97168.78;5006665;28;20193;-76
2023/01/12 05:53:29;;;;;;;14.83;8.70;;;;;;;5.21;96.54;97183.09;5008060;28;20668;-74
2023/01/12 05:55:57;;;;;;;24.33;13.83;;;;;;;5.07;95.62;97149.19;5006026;28;20258;-81
2023/01/12 05:58:24;;;;;;;20.90;12.73;;;;;;;4.93;94.78;97132.38;5006400;28;20678;-74
2023/01/12 06:00:51;;;;;;;22.03;12.73;;;;;;;5.11;95.47;97173.91;5006800;28;20197;-75
2023/01/12 06:03:18;;;;;;;16.53;10.37;;;;;;;5.20;95.45;97178.81;5006412;28;20184;-71
2023/01/12 06:05:52;;;;;;;12.23;8.50;;;;;;;5.19;95.94;97177.16;5007741;28;20191;-70
2023/01/12 06:08:19;;;;;;;14.17;7.43;;;;;;;5.05;95.80;97174.03;5006332;28;20217;-72
2023/01/12 06:10:47;;;;;;;8.27;5.83;;;;;;;4.91;96.64;97184.59;5007966;28;20554;-73
2023/01/12 06:16:04;;;;;;;10.93;6.83;;;;;;;5.21;96.01;97180.53;5006679;28;20189;-72
2023/01/12 06:18:35;;;;;;;7.83;6.30;;;;;;;5.33;95.36;97182.81;5005669;28;20261;-74
2023/01/12 06:21:04;;;;;;;11.70;9.37;;;;;;;5.25;95.15;97164.16;5005314;28;20222;-71
2023/01/12 06:23:31;;;;;;;17.00;9.27;;;;;;;5.24;95.48;97180.44;5007866;28;20233;-71
2023/01/12 06:26:03;;;;;;;11.30;7.60;;;;;;;5.33;95.45;97175.09;5005983;28;20197;-71
2023/01/12 06:28:30;;;;;;;12.97;9.43;;;;;;;5.34;94.65;97171.63;5006525;28;20201;-71
2023/01/12 06:30:59;;;;;;;20.03;10.73;;;;;;;5.42;94.81;97174.91;5006237;28;20687;-80
2023/01/12 06:34:07;;;;;;;13.87;9.43;;;;;;;5.49;94.53;97174.72;5005924;28;20211;-73
2023/01/12 06:37:27;;;;;;;11.33;7.97;;;;;;;5.52;95.43;97189.22;5007611;28;20188;-80
2023/01/12 06:40:48;;;;;;;11.20;8.00;;;;;;;5.60;94.12;97180.44;5007046;28;20656;-73
2023/01/12 06:44:09;;;;;;;12.53;8.70;;;;;;;5.56;94.49;97185.69;5006024;28;20195;-72
2023/01/12 06:47:30;;;;;;;12.87;9.17;;;;;;;5.53;94.74;97190.88;5005182;28;20187;-73
2023/01/12 06:50:52;;;;;;;18.43;11.70;;;;;;;5.59;94.83;97191.59;5007538;28;20608;-77
2023/01/12 06:54:13;;;;;;;18.63;12.10;;;;;;;5.55;94.69;97191.69;5007420;28;20188;-74
2023/01/12 06:57:33;;;;;;;20.20;14.00;;;;;;;5.56;94.71;97195.97;5005664;28;20506;-79
2023/01/12 07:00:54;;;;;;;19.40;13.80;;;;;;;5.44;95.01;97199.63;5004700;28;20589;-74
2023/01/12 07:04:15;;;;;;;26.67;17.13;;;;;;;5.49;96.48;97202.09;4994943;28;20693;-79
2023/01/12 07:07:36;;;;;;;27.13;17.80;;;;;;;5.48;96.17;97213.28;4992780;28;20281;-76
2023/01/12 07:10:57;;;;;;;28.87;18.17;;;;;;;5.48;94.90;97211.53;5008554;28;20208;-71
2023/01/12 07:14:18;;;;;;;31.00;18.50;;;;;;;5.26;95.16;97205.19;4977076;28;20186;-76
2023/01/12 07:17:39;;;;;;;21.80;14.70;;;;;;;5.44;95.69;97215.03;5010081;28;20236;-80
2023/01/12 07:20:59;;;;;;;21.23;14.40;;;;;;;5.47;95.32;97215.00;5011047;28;20188;-78
2023/01/12 07:24:20;;;;;;;21.77;13.40;;;;;;;5.41;95.09;97216.84;5008836;28;20207;-75
2023/01/12 07:27:41;;;;;;;41.67;25.20;;;;;;;5.47;94.15;97217.56;5008815;28;20197;-81
2023/01/12 07:31:01;;;;;;;27.20;17.10;;;;;;;5.55;94.56;97209.66;5007519;28;20194;-76
2023/01/12 07:34:23;;;;;;;23.03;15.50;;;;;;;5.51;95.49;97211.47;5009286;28;20814;-74
2023/01/12 07:37:43;;;;;;;31.83;20.43;;;;;;;5.59;95.17;97217.28;5009129;28;20250;-76
2023/01/12 07:41:04;;;;;;;28.30;15.37;;;;;;;5.62;95.28;97211.22;5006462;28;20190;-77
2023/01/12 07:44:25;;;;;;;19.97;13.27;;;;;;;5.77;95.46;97224.53;4992113;28;20195;-72
2023/01/12 07:47:46;;;;;;;20.33;12.93;;;;;;;5.73;93.88;97209.22;5008383;28;20639;-73
2023/01/12 07:51:18;;;;;;;26.43;17.67;;;;;;;5.79;94.96;97225.34;4991996;28;20740;-72
2023/01/12 07:54:40;;;;;;;24.30;15.40;;;;;;;5.82;94.94;97228.72;4991828;28;20658;-78
2023/01/12 07:58:16;;;;;;;19.50;13.77;;;;;;;5.84;93.63;97222.69;5008620;28;20671;-74
2023/01/12 08:01:38;;;;;;;22.67;15.27;;;;;;;5.84;95.79;97232.13;4989385;28;20209;-79
2023/01/12 08:04:59;;;;;;;23.60;16.27;;;;;;;5.93;95.04;97227.63;5007703;28;20190;-80
2023/01/12 08:08:20;;;;;;;22.43;14.23;;;;;;;5.87;95.66;97230.34;5009746;28;20194;-76
2023/01/12 08:11:41;;;;;;;26.23;15.13;;;;;;;5.76;94.58;97229.72;5008840;28;20198;-75
2023/01/12 08:15:03;;;;;;;27.63;15.80;;;;;;;5.75;96.41;97228.88;5005944;28;20268;-75
2023/01/12 08:18:23;;;;;;;23.40;14.23;;;;;;;5.87;96.07;97243.19;5008432;28;20731;-76
2023/01/12 08:21:44;;;;;;;24.63;14.03;;;;;;;5.94;94.78;97239.59;5009754;28;20207;-76
2023/01/12 08:25:05;;;;;;;20.47;13.03;;;;;;;6.02;94.23;97239.41;5007351;28;20586;-78
2023/01/12 08:28:26;;;;;;;19.13;11.97;;;;;;;6.09;93.56;97244.34;5005835;28;20239;-75
2023/01/12 08:31:47;;;;;;;15.87;10.20;;;;;;;5.96;94.89;97242.09;5005599;28;20516;-80
2023/01/12 08:35:08;;;;;;;24.87;14.07;;;;;;;6.04;94.66;97246.19;5007457;28;20692;-80
2023/01/12 08:38:28;;;;;;;10.83;8.63;;;;;;;6.09;94.60;97259.78;5007479;28;20212;-74
2023/01/12 08:41:49;;;;;;;12.80;9.40;;;;;;;6.14;93.42;97263.06;5007950;28;20212;-79
2023/01/12 08:45:10;;;;;;;11.63;7.37;;;;;;;6.15;93.15;97259.63;5007331;28;20201;-78
2023/01/12 08:48:30;;;;;;;28.57;19.00;;;;;;;5.85;96.75;97257.81;5008470;28;20202;-76
2023/01/12 08:51:51;;;;;;;29.53;20.63;;;;;;;5.87;96.81;97258.63;5008865;28;20197;-75
2023/01/12 08:55:12;;;;;;;31.40;20.63;;;;;;;5.79;97.81;97258.75;5006550;28;20193;-74
2023/01/12 08:58:32;;;;;;;39.07;25.57;;;;;;;5.79;97.77;97256.19;5005349;28;20193;-77
2023/01/12 09:01:53;;;;;;;49.23;32.23;;;;;;;5.88;96.94;97252.59;5007210;28;20905;-75
2023/01/12 09:05:15;;;;;;;46.50;28.07;;;;;;;5.93;96.66;97247.34;5006538;28;20193;-79
2023/01/12 09:08:36;;;;;;;48.10;31.07;;;;;;;5.95;95.83;97255.84;5008456;28;20216;-75
2023/01/12 09:11:56;;;;;;;47.57;31.90;;;;;;;5.56;98.69;97258.44;5006866;28;20190;-72
2023/01/12 09:15:17;;;;;;;36.07;24.90;;;;;;;5.24;99.28;97249.75;5005184;28;20189;-72
2023/01/12 09:18:38;;;;;;;45.87;30.17;;;;;;;5.42;100.00;97244.25;5008242;28;20228;-72
2023/01/12 09:21:58;;;;;;;34.80;22.03;;;;;;;5.56;99.37;97242.19;5006459;28;20581;-73
2023/01/12 09:25:19;;;;;;;31.90;22.43;;;;;;;5.49;99.94;97241.47;5007331;28;20191;-74
2023/01/12 09:28:40;;;;;;;39.17;23.47;;;;;;;5.50;99.93;97244.91;5006550;28;20696;-74
2023/01/12 09:32:00;;;;;;;30.47;19.00;;;;;;;5.55;98.98;97245.63;5005327;28;20195;-72
2023/01/12 09:35:21;;;;;;;22.40;16.33;;;;;;;5.50;97.87;97245.72;5006540;28;20691;-72
2023/01/12 09:38:42;;;;;;;22.07;15.20;;;;;;;5.57;98.13;97241.28;5006516;28;20195;-73
2023/01/12 09:49:20;;;;;;;27.80;18.00;;;;;;;6.03;97.14;97229.09;5007022;28;20181;-72
2023/01/12 09:52:41;;;;;;;22.70;16.17;;;;;;;6.32;95.00;97226.63;5006020;28;20208;-73
2023/01/12 09:56:01;;;;;;;21.07;15.57;;;;;;;6.36;94.30;97225.66;5006074;28;20255;-78
2023/01/12 09:58:54;;;;;;;23.67;14.43;;;;;;;6.26;94.44;97215.66;5004246;28;20189;-75
2023/01/12 10:02:15;;;;;;;16.00;11.43;;;;;;;6.42;94.72;97217.78;5006861;28;20320;-72
2023/01/12 10:05:36;;;;;;;17.93;11.47;;;;;;;6.45;94.34;97216.84;5007757;28;20201;-72
2023/01/12 10:08:17;;;;;;;11.83;8.73;;;;;;;6.35;94.76;97216.25;5007576;28;20195;-72
2023/01/12 10:11:27;;;;;;;20.10;12.67;;;;;;;6.30;94.71;97207.81;4989767;28;20183;-80
2023/01/12 10:14:11;;;;;;;15.37;10.80;;;;;;;6.22;95.37;97217.44;4991091;28;20384;-71
2023/01/12 10:17:17;;;;;;;12.90;9.43;;;;;;;6.17;95.83;97215.88;5005396;28;20201;-75
2023/01/12 10:20:07;;;;;;;14.27;11.20;;;;;;;6.22;96.21;97212.28;5007249;28;20187;-76
2023/01/12 10:23:08;;;;;;;16.17;11.67;;;;;;;6.34;94.88;97209.44;5007795;28;20304;-74
2023/01/12 10:25:58;;;;;;;15.40;11.23;;;;;;;6.28;94.17;97212.16;5008769;28;20195;-74
2023/01/12 10:29:19;;;;;;;9.00;6.30;;;;;;;6.37;93.49;97204.19;5005954;28;20312;-73
2023/01/12 10:32:40;;;;;;;9.50;6.80;;;;;;;6.26;92.75;97205.38;5004446;28;20191;-73
2023/01/12 10:36:16;;;;;;;9.53;7.30;;;;;;;6.33;94.36;97205.16;5009316;28;20202;-75
2023/01/12 10:39:22;;;;;;;7.30;6.47;;;;;;;6.19;93.79;97191.81;4993311;28;20190;-77
2023/01/12 10:46:12;;;;;;;12.30;7.37;;;;;;;6.42;94.42;97196.34;5009646;28;20191;-78
2023/01/12 10:49:39;;;;;;;16.30;9.90;;;;;;;6.49;93.62;97193.56;5008920;28;20200;-73
2023/01/12 10:52:59;;;;;;;13.77;9.43;;;;;;;6.68;93.06;97188.75;5011156;28;20217;-72
2023/01/12 10:56:20;;;;;;;11.27;9.07;;;;;;;6.56;93.15;97179.66;5011872;28;20590;-73
2023/01/12 10:59:21;;;;;;;18.90;11.97;;;;;;;6.58;92.67;97190.75;5007106;28;20195;-73
2023/01/12 11:02:06;;;;;;;18.77;12.80;;;;;;;6.70;92.39;97186.16;5011542;28;20210;-75
2023/01/12 11:05:28;;;;;;;17.40;11.93;;;;;;;6.74;93.21;97185.19;4992314;28;20202;-76
2023/01/12 11:08:49;;;;;;;17.13;11.77;;;;;;;6.65;92.67;97178.56;5007870;28;20202;-72
2023/01/12 11:12:13;;;;;;;20.83;14.20;;;;;;;6.93;92.33;97178.59;5008989;28;20235;-76
2023/01/12 11:15:19;;;;;;;19.53;14.33;;;;;;;6.93;93.24;97179.44;5007485;28;20209;-71
2023/01/12 11:18:22;;;;;;;22.73;14.93;;;;;;;6.88;92.49;97180.47;5012150;28;20311;-72
2023/01/12 11:21:45;;;;;;;15.83;11.90;;;;;;;6.81;92.12;97187.53;5010578;28;20191;-71
2023/01/12 11:25:21;;;;;;;12.80;9.30;;;;;;;6.79;92.59;97167.88;5008642;28;20274;-72
2023/01/12 11:28:45;;;;;;;15.10;10.87;;;;;;;6.89;92.15;97174.44;5007607;28;20653;-71
2023/01/12 11:32:09;;;;;;;12.00;9.50;;;;;;;6.79;91.83;97166.13;5009947;28;20640;-71
2023/01/12 11:35:33;;;;;;;12.00;8.33;;;;;;;6.67;93.32;97171.63;5008348;28;20682;-74
2023/01/12 11:38:23;;;;;;;10.13;8.07;;;;;;;6.63;93.43;97171.75;5006308;28;20181;-75
2023/01/12 11:41:33;;;;;;;8.87;7.20;;;;;;;6.66;93.44;97174.25;5009059;28;20191;-71
2023/01/12 11:45:00;;;;;;;9.77;8.20;;;;;;;6.79;93.12;97175.59;5008294;28;20187;-74
2023/01/12 11:48:30;;;;;;;9.87;8.10;;;;;;;6.90;92.12;97166.69;5009527;28;20215;-74
2023/01/12 11:51:50;;;;;;;16.37;11.17;;;;;;;6.95;92.69;97163.94;5006370;28;20190;-75
2023/01/12 11:55:11;;;;;;;14.00;11.10;;;;;;;6.78;91.72;97171.34;5008228;28;20194;-72
2023/01/12 11:58:32;;;;;;;17.07;13.17;;;;;;;6.89;91.00;97164.97;5009967;28;20202;-72
2023/01/12 12:01:34;;;;;;;16.93;12.70;;;;;;;6.47;91.15;97159.31;4991512;28;20769;-71
2023/01/12 12:04:33;;;;;;;19.00;13.43;;;;;;;6.61;92.48;97166.66;5006381;28;20186;-72
2023/01/12 12:07:44;;;;;;;19.67;13.30;;;;;;;6.79;93.77;97165.28;5008439;28;20660;-75
2023/01/12 12:11:11;;;;;;;23.83;15.83;;;;;;;7.00;92.76;97169.81;5007685;28;20241;-75
2023/01/12 12:14:35;;;;;;;10.30;7.63;;;;;;;6.80;91.49;97159.28;5004530;28;20660;-74
2023/01/12 12:17:19;;;;;;;11.13;7.87;;;;;;;6.65;91.63;97150.25;4966489;28;20232;-73
2023/01/12 12:20:35;;;;;;;12.13;7.87;;;;;;;6.89;92.76;97146.13;5008819;28;20187;-78
2023/01/12 12:23:47;;;;;;;10.57;7.50;;;;;;;6.94;92.60;97149.41;4992387;28;20300;-73
2023/01/12 12:27:11;;;;;;;10.80;7.40;;;;;;;7.06;92.57;97144.75;5008095;28;20571;-74
2023/01/12 12:30:31;;;;;;;10.83;8.67;;;;;;;7.03;91.52;97138.81;5007543;28;20195;-71
2023/01/12 12:34:06;;;;;;;13.67;9.73;;;;;;;7.08;92.06;97142.09;5009296;28;20217;-72
2023/01/12 12:37:01;;;;;;;15.93;11.17;;;;;;;7.04;92.25;97140.50;5009128;28;20194;-73
2023/01/12 12:40:14;;;;;;;14.87;11.67;;;;;;;7.18;91.55;97133.22;5009445;28;20249;-75
2023/01/12 12:47:29;;;;;;;18.27;13.27;;;;;;;7.29;91.01;97133.72;4996775;28;20265;-72
2023/01/12 12:50:36;;;;;;;17.60;11.93;;;;;;;7.09;90.53;97131.75;5006721;28;20324;-72
2023/01/12 12:54:08;;;;;;;22.00;14.90;;;;;;;7.02;92.08;97121.69;5010248;28;20190;-70
2023/01/12 12:57:29;;;;;;;22.40;15.43;;;;;;;7.18;91.46;97125.47;5008204;28;20189;-71
2023/01/12 13:00:50;;;;;;;24.43;16.43;;;;;;;6.98;92.06;97109.81;5007134;28;20222;-72
2023/01/12 13:03:40;;;;;;;24.73;17.60;;;;;;;7.12;92.45;97118.78;5009232;28;20269;-78
2023/01/12 13:07:12;;;;;;;23.37;16.63;;;;;;;7.24;90.93;97117.56;5006937;28;20198;-75
2023/01/12 13:10:45;;;;;;;22.07;16.47;;;;;;;7.33;91.32;97114.72;5008819;28;20191;-77
2023/01/12 13:14:20;;;;;;;18.97;13.87;;;;;;;7.32;90.20;97116.44;5007153;28;20274;-71
2023/01/12 13:17:24;;;;;;;17.60;13.23;;;;;;;7.42;90.80;97116.97;5006524;28;20241;-72
2023/01/12 13:20:05;;;;;;;13.93;11.43;;;;;;;7.32;90.41;97124.16;5006990;28;20928;-78
2023/01/12 13:23:47;;;;;;;13.43;10.83;;;;;;;7.37;90.04;97111.13;5005607;28;20817;-73
2023/01/12 13:26:34;;;;;;;17.97;12.30;;;;;;;7.25;90.59;97119.25;4983794;28;20231;-72
2023/01/12 13:29:27;;;;;;;12.00;9.83;;;;;;;7.26;90.90;97126.06;4984682;28;20191;-74
2023/01/12 13:32:46;;;;;;;9.53;8.00;;;;;;;7.21;90.28;97131.38;5002457;28;20203;-73
2023/01/12 13:35:33;;;;;;;10.30;8.80;;;;;;;7.24;91.43;97131.28;5007198;28;20264;-74
2023/01/12 13:38:23;;;;;;;11.77;7.70;;;;;;;7.24;91.54;97131.28;5006824;28;20705;-72
2023/01/12 13:43:13;;;;;;;7.30;5.47;;;;;;;7.11;90.89;97136.88;5006415;28;20191;-74
2023/01/12 13:44:53;;;;;;;8.80;6.00;;;;;;;7.09;92.21;97148.97;5007349;28;20188;-74
2023/01/12 13:48:14;;;;;;;7.53;5.23;;;;;;;7.11;91.79;97147.19;5004269;28;20482;-75
2023/01/12 13:51:40;;;;;;;5.47;4.20;;;;;;;6.96;92.58;97153.63;5005262;28;20565;-78
2023/01/12 13:55:01;;;;;;;8.47;5.13;;;;;;;7.00;91.91;97156.94;5008119;28;20186;-73
2023/01/12 13:58:36;;;;;;;6.23;5.20;;;;;;;6.74;92.53;97160.25;5007813;28;20587;-76
2023/01/12 14:01:57;;;;;;;5.17;4.30;;;;;;;6.81;92.84;97163.50;5004650;28;20285;-74
2023/01/12 14:05:36;;;;;;;6.20;4.70;;;;;;;6.72;92.26;97150.94;5005952;28;20197;-75
2023/01/12 14:09:08;;;;;;;8.63;6.03;;;;;;;6.82;92.18;97152.34;4970818;28;20599;-71
2023/01/12 14:12:27;;;;;;;7.40;4.80;;;;;;;6.46;93.57;97173.09;5007133;28;20275;-73
2023/01/12 14:19:19;;;;;;;10.37;7.77;;;;;;;6.56;93.28;97166.78;5006220;28;20645;-73
2023/01/12 14:22:58;;;;;;;10.83;8.00;;;;;;;6.23;93.84;97170.28;5005684;28;20232;-76
2023/01/12 14:26:01;;;;;;;11.60;8.50;;;;;;;6.26;93.86;97171.94;5005296;28;20191;-81